sensor_id;sensor_type;location;lat;lon;timestamp;pressure;altitude;pressure_sealevel;temperature
45393;BMP280;31129;44.810;10.334;2023-03-15T00:00:41;99535.13;;;12.62
45393;BMP280;31129;44.810;10.334;2023-03-15T00:03:07;99538.81;;;12.70
45393;BMP280;31129;44.810;10.334;2023-03-15T00:05:33;99544.06;;;12.63
45393;BMP280;31129;44.810;10.334;2023-03-15T00:07:58;99537.16;;;12.56
45393;BMP280;31129;44.810;10.334;2023-03-15T00:10:24;99539.91;;;12.56
45393;BMP280;31129;44.810;10.334;2023-03-15T00:12:49;99545.91;;;12.49
45393;BMP280;31129;44.810;10.334;2023-03-15T00:15:15;99559.56;;;12.49
45393;BMP280;31129;44.810;10.334;2023-03-15T00:17:40;99553.88;;;12.47
45393;BMP280;31129;44.810;10.334;2023-03-15T00:20:06;99565.34;;;12.45
45393;BMP280;31129;44.810;10.334;2023-03-15T00:22:32;99574.34;;;12.40
45393;BMP280;31129;44.810;10.334;2023-03-15T00:24:57;99581.78;;;12.40
45393;BMP280;31129;44.810;10.334;2023-03-15T00:27:23;99586.19;;;12.49
45393;BMP280;31129;44.810;10.334;2023-03-15T00:29:48;99591.50;;;12.41
45393;BMP280;31129;44.810;10.334;2023-03-15T00:32:14;99589.94;;;12.45
45393;BMP280;31129;44.810;10.334;2023-03-15T00:34:39;99595.19;;;12.38
45393;BMP280;31129;44.810;10.334;2023-03-15T00:37:04;99597.47;;;12.34
45393;BMP280;31129;44.810;10.334;2023-03-15T00:39:30;99602.66;;;12.37
45393;BMP280;31129;44.810;10.334;2023-03-15T00:41:55;99605.44;;;12.32
45393;BMP280;31129;44.810;10.334;2023-03-15T00:44:22;99608.13;;;12.37
45393;BMP280;31129;44.810;10.334;2023-03-15T00:46:49;99598.97;;;12.29
45393;BMP280;31129;44.810;10.334;2023-03-15T00:49:14;99597.50;;;12.23
45393;BMP280;31129;44.810;10.334;2023-03-15T00:51:40;99602.72;;;12.21
45393;BMP280;31129;44.810;10.334;2023-03-15T00:54:05;99604.94;;;12.22
45393;BMP280;31129;44.810;10.334;2023-03-15T00:56:30;99616.69;;;12.17
45393;BMP280;31129;44.810;10.334;2023-03-15T00:58:58;99607.50;;;12.09
45393;BMP280;31129;44.810;10.334;2023-03-15T01:01:26;99615.97;;;12.05
45393;BMP280;31129;44.810;10.334;2023-03-15T01:03:52;99630.38;;;12.00
45393;BMP280;31129;44.810;10.334;2023-03-15T01:06:20;99626.19;;;11.94
45393;BMP280;31129;44.810;10.334;2023-03-15T01:08:46;99628.19;;;11.93
45393;BMP280;31129;44.810;10.334;2023-03-15T01:11:15;99644.09;;;11.84
45393;BMP280;31129;44.810;10.334;2023-03-15T01:13:40;99632.94;;;11.76
45393;BMP280;31129;44.810;10.334;2023-03-15T01:16:09;99647.59;;;11.79
45393;BMP280;31129;44.810;10.334;2023-03-15T01:18:36;99646.81;;;11.72
45393;BMP280;31129;44.810;10.334;2023-03-15T01:21:04;99649.06;;;11.74
45393;BMP280;31129;44.810;10.334;2023-03-15T01:23:33;99654.53;;;11.74
45393;BMP280;31129;44.810;10.334;2023-03-15T01:25:59;99670.19;;;11.73
45393;BMP280;31129;44.810;10.334;2023-03-15T01:28:24;99659.03;;;11.66
45393;BMP280;31129;44.810;10.334;2023-03-15T01:30:50;99663.75;;;11.65
45393;BMP280;31129;44.810;10.334;2023-03-15T01:33:16;99660.50;;;11.61
45393;BMP280;31129;44.810;10.334;2023-03-15T01:35:41;99659.25;;;11.62
45393;BMP280;31129;44.810;10.334;2023-03-15T01:38:06;99655.28;;;11.47
45393;BMP280;31129;44.810;10.334;2023-03-15T01:40:32;99656.53;;;11.46
45393;BMP280;31129;44.810;10.334;2023-03-15T01:48:35;99663.75;;;11.32
45393;BMP280;31129;44.810;10.334;2023-03-15T01:51:09;99663.22;;;11.45
45393;BMP280;31129;44.810;10.334;2023-03-15T01:53:37;99659.25;;;11.23
45393;BMP280;31129;44.810;10.334;2023-03-15T01:56:03;99657.03;;;11.33
45393;BMP280;31129;44.810;10.334;2023-03-15T01:58:34;99654.03;;;11.31
45393;BMP280;31129;44.810;10.334;2023-03-15T02:01:01;99658.97;;;11.16
45393;BMP280;31129;44.810;10.334;2023-03-15T02:03:33;99659.00;;;11.21
45393;BMP280;31129;44.810;10.334;2023-03-15T02:06:03;99660.25;;;11.20
45393;BMP280;31129;44.810;10.334;2023-03-15T02:08:44;99655.50;;;11.15
45393;BMP280;31129;44.810;10.334;2023-03-15T02:11:12;99650.03;;;11.15
45393;BMP280;31129;44.810;10.334;2023-03-15T02:13:39;99652.78;;;11.15
45393;BMP280;31129;44.810;10.334;2023-03-15T02:16:07;99647.06;;;11.08
45393;BMP280;31129;44.810;10.334;2023-03-15T02:18:40;99638.34;;;10.98
45393;BMP280;31129;44.810;10.334;2023-03-15T02:21:21;99639.34;;;11.00
45393;BMP280;31129;44.810;10.334;2023-03-15T02:23:57;99645.31;;;11.05
45393;BMP280;31129;44.810;10.334;2023-03-15T02:29:01;99640.59;;;11.05
45393;BMP280;31129;44.810;10.334;2023-03-15T02:31:27;99635.38;;;11.13
45393;BMP280;31129;44.810;10.334;2023-03-15T02:33:54;99642.09;;;11.12
45393;BMP280;31129;44.810;10.334;2023-03-15T02:36:24;99646.81;;;11.11
45393;BMP280;31129;44.810;10.334;2023-03-15T02:38:51;99646.31;;;11.13
45393;BMP280;31129;44.810;10.334;2023-03-15T02:41:20;99635.38;;;11.13
45393;BMP280;31129;44.810;10.334;2023-03-15T02:43:52;99644.59;;;11.21
45393;BMP280;31129;44.810;10.334;2023-03-15T02:46:18;99649.81;;;11.19
45393;BMP280;31129;44.810;10.334;2023-03-15T02:48:45;99646.09;;;11.22
45393;BMP280;31129;44.810;10.334;2023-03-15T02:51:22;99649.31;;;11.26
45393;BMP280;31129;44.810;10.334;2023-03-15T02:53:49;99646.34;;;11.24
45393;BMP280;31129;44.810;10.334;2023-03-15T02:56:15;99659.25;;;11.23
45393;BMP280;31129;44.810;10.334;2023-03-15T02:58:41;99658.25;;;11.26
45393;BMP280;31129;44.810;10.334;2023-03-15T03:01:12;99659.03;;;11.38
45393;BMP280;31129;44.810;10.334;2023-03-15T03:03:39;99651.81;;;11.35
45393;BMP280;31129;44.810;10.334;2023-03-15T03:06:04;99658.50;;;11.34
45393;BMP280;31129;44.810;10.334;2023-03-15T03:08:30;99653.56;;;11.38
45393;BMP280;31129;44.810;10.334;2023-03-15T03:10:55;99647.81;;;11.42
45393;BMP280;31129;44.810;10.334;2023-03-15T03:13:24;99648.59;;;11.36
45393;BMP280;31129;44.810;10.334;2023-03-15T03:15:49;99654.78;;;11.43
45393;BMP280;31129;44.810;10.334;2023-03-15T03:18:24;99659.50;;;11.36
45393;BMP280;31129;44.810;10.334;2023-03-15T03:20:50;99658.28;;;11.37
45393;BMP280;31129;44.810;10.334;2023-03-15T03:23:16;99663.47;;;11.35
45393;BMP280;31129;44.810;10.334;2023-03-15T03:25:41;99667.19;;;11.44
45393;BMP280;31129;44.810;10.334;2023-03-15T03:28:09;99666.44;;;11.43
45393;BMP280;31129;44.810;10.334;2023-03-15T03:30:35;99668.94;;;11.35
45393;BMP280;31129;44.810;10.334;2023-03-15T03:33:01;99668.19;;;11.41
45393;BMP280;31129;44.810;10.334;2023-03-15T03:35:27;99679.38;;;11.37
45393;BMP280;31129;44.810;10.334;2023-03-15T03:37:54;99683.09;;;11.45
45393;BMP280;31129;44.810;10.334;2023-03-15T03:40:25;99693.03;;;11.54
45393;BMP280;31129;44.810;10.334;2023-03-15T03:42:51;99677.66;;;11.51
45393;BMP280;31129;44.810;10.334;2023-03-15T03:45:18;99699.97;;;11.49
45393;BMP280;31129;44.810;10.334;2023-03-15T03:47:45;99701.72;;;11.35
45393;BMP280;31129;44.810;10.334;2023-03-15T03:50:10;99702.72;;;11.38
45393;BMP280;31129;44.810;10.334;2023-03-15T03:52:36;99700.22;;;11.34
45393;BMP280;31129;44.810;10.334;2023-03-15T03:55:05;99705.94;;;11.36
45393;BMP280;31129;44.810;10.334;2023-03-15T03:57:31;99708.41;;;11.40
45393;BMP280;31129;44.810;10.334;2023-03-15T03:59:57;99712.66;;;11.47
45393;BMP280;31129;44.810;10.334;2023-03-15T04:02:23;99703.94;;;11.43
45393;BMP280;31129;44.810;10.334;2023-03-15T04:04:57;99703.94;;;11.37
45393;BMP280;31129;44.810;10.334;2023-03-15T04:07:24;99710.16;;;11.37
45393;BMP280;31129;44.810;10.334;2023-03-15T04:09:49;99694.25;;;11.36
45393;BMP280;31129;44.810;10.334;2023-03-15T04:12:16;99709.63;;;11.28
45393;BMP280;31129;44.810;10.334;2023-03-15T04:14:44;99715.09;;;11.33
45393;BMP280;31129;44.810;10.334;2023-03-15T04:17:10;99712.81;;;11.15
45393;BMP280;31129;44.810;10.334;2023-03-15T04:19:36;99714.06;;;11.14
45393;BMP280;31129;44.810;10.334;2023-03-15T04:22:03;99714.09;;;11.25
45393;BMP280;31129;44.810;10.334;2023-03-15T04:24:41;99705.41;;;11.21
45393;BMP280;31129;44.810;10.334;2023-03-15T04:27:09;99721.28;;;11.17
45393;BMP280;31129;44.810;10.334;2023-03-15T04:30:09;99724.25;;;11.19
45393;BMP280;31129;44.810;10.334;2023-03-15T04:32:47;99713.63;;;11.32
45393;BMP280;31129;44.810;10.334;2023-03-15T04:35:21;99729.22;;;11.21
45393;BMP280;31129;44.810;10.334;2023-03-15T04:37:59;99727.19;;;11.10
45393;BMP280;31129;44.810;10.334;2023-03-15T04:40:40;99733.63;;;11.01
45393;BMP280;31129;44.810;10.334;2023-03-15T04:43:17;99734.59;;;10.98
45393;BMP280;31129;44.810;10.334;2023-03-15T04:46:03;99733.53;;;10.79
45393;BMP280;31129;44.810;10.334;2023-03-15T04:48:39;99728.34;;;10.81
45393;BMP280;31129;44.810;10.334;2023-03-15T04:51:29;99736.75;;;10.72
45393;BMP280;31129;44.810;10.334;2023-03-15T04:54:12;99740.38;;;10.58
45393;BMP280;31129;44.810;10.334;2023-03-15T04:56:56;99744.06;;;10.55
45393;BMP280;31129;44.810;10.334;2023-03-15T04:59:40;99746.78;;;10.49
45393;BMP280;31129;44.810;10.334;2023-03-15T05:02:31;99755.69;;;10.44
45393;BMP280;31129;44.810;10.334;2023-03-15T05:05:22;99763.03;;;10.38
45393;BMP280;31129;44.810;10.334;2023-03-15T05:08:03;99769.13;;;10.22
45393;BMP280;31129;44.810;10.334;2023-03-15T05:10:29;99764.13;;;10.15
45393;BMP280;31129;44.810;10.334;2023-03-15T05:13:07;99767.69;;;10.26
45393;BMP280;31129;44.810;10.334;2023-03-15T05:15:39;99781.53;;;10.23
45393;BMP280;31129;44.810;10.334;2023-03-15T05:18:23;99778.28;;;10.19
45393;BMP280;31129;44.810;10.334;2023-03-15T05:21:07;99775.63;;;9.98
45393;BMP280;31129;44.810;10.334;2023-03-15T05:23:43;99786.41;;;9.87
45393;BMP280;31129;44.810;10.334;2023-03-15T05:26:27;99783.44;;;9.85
45393;BMP280;31129;44.810;10.334;2023-03-15T05:29:20;99791.81;;;9.56
45393;BMP280;31129;44.810;10.334;2023-03-15T05:32:18;99797.88;;;9.45
45393;BMP280;31129;44.810;10.334;2023-03-15T05:35:12;99798.69;;;9.51
45393;BMP280;31129;44.810;10.334;2023-03-15T05:37:54;99798.22;;;9.53
45393;BMP280;31129;44.810;10.334;2023-03-15T05:40:38;99804.75;;;9.41
45393;BMP280;31129;44.810;10.334;2023-03-15T05:43:33;99815.28;;;9.33
45393;BMP280;31129;44.810;10.334;2023-03-15T05:46:24;99817.56;;;9.35
45393;BMP280;31129;44.810;10.334;2023-03-15T05:48:58;99809.16;;;9.18
45393;BMP280;31129;44.810;10.334;2023-03-15T05:51:42;99825.03;;;9.19
45393;BMP280;31129;44.810;10.334;2023-03-15T05:54:17;99831.94;;;9.00
45393;BMP280;31129;44.810;10.334;2023-03-15T05:56:58;99842.81;;;9.00
45393;BMP280;31129;44.810;10.334;2023-03-15T05:59:29;99847.31;;;9.03
45393;BMP280;31129;44.810;10.334;2023-03-15T06:02:21;99857.06;;;8.95
45393;BMP280;31129;44.810;10.334;2023-03-15T06:05:18;99858.25;;;8.88
45393;BMP280;31129;44.810;10.334;2023-03-15T06:07:45;99863.69;;;8.74
45393;BMP280;31129;44.810;10.334;2023-03-15T06:10:12;99867.97;;;8.95
45393;BMP280;31129;44.810;10.334;2023-03-15T06:12:38;99883.75;;;8.91
45393;BMP280;31129;44.810;10.334;2023-03-15T06:15:04;99889.19;;;8.91
45393;BMP280;31129;44.810;10.334;2023-03-15T06:17:30;99889.19;;;8.91
45393;BMP280;31129;44.810;10.334;2023-03-15T06:19:56;99892.72;;;8.97
45393;BMP280;31129;44.810;10.334;2023-03-15T06:22:22;99896.66;;;8.96
45393;BMP280;31129;44.810;10.334;2023-03-15T06:24:53;99897.69;;;8.99
45393;BMP280;31129;44.810;10.334;2023-03-15T06:27:39;99911.53;;;9.15
45393;BMP280;31129;44.810;10.334;2023-03-15T06:30:05;99906.84;;;9.16
45393;BMP280;31129;44.810;10.334;2023-03-15T06:32:31;99904.75;;;9.25
45393;BMP280;31129;44.810;10.334;2023-03-15T06:34:56;99909.03;;;9.32
45393;BMP280;31129;44.810;10.334;2023-03-15T06:37:22;99921.31;;;9.42
45393;BMP280;31129;44.810;10.334;2023-03-15T06:39:48;99911.53;;;9.50
45393;BMP280;31129;44.810;10.334;2023-03-15T06:42:15;99925.66;;;9.49
45393;BMP280;31129;44.810;10.334;2023-03-15T06:44:41;99926.34;;;9.64
45393;BMP280;31129;44.810;10.334;2023-03-15T06:47:08;99925.97;;;9.56
45393;BMP280;31129;44.810;10.334;2023-03-15T06:49:36;99933.81;;;9.69
45393;BMP280;31129;44.810;10.334;2023-03-15T06:52:03;99936.69;;;9.80
45393;BMP280;31129;44.810;10.334;2023-03-15T06:54:28;99937.56;;;9.92
45393;BMP280;31129;44.810;10.334;2023-03-15T06:56:55;99946.53;;;9.98
45393;BMP280;31129;44.810;10.334;2023-03-15T06:59:20;99947.88;;;10.08
45393;BMP280;31129;44.810;10.334;2023-03-15T07:01:46;99953.31;;;10.28
45393;BMP280;31129;44.810;10.334;2023-03-15T07:04:12;99945.19;;;10.34
45393;BMP280;31129;44.810;10.334;2023-03-15T07:06:37;99933.47;;;10.54
45393;BMP280;31129;44.810;10.334;2023-03-15T07:09:03;99945.03;;;10.69
45393;BMP280;31129;44.810;10.334;2023-03-15T07:11:29;99970.28;;;10.95
45393;BMP280;31129;44.810;10.334;2023-03-15T07:13:54;99953.53;;;11.08
45393;BMP280;31129;44.810;10.334;2023-03-15T07:16:20;99981.66;;;11.20
45393;BMP280;31129;44.810;10.334;2023-03-15T07:18:45;99970.03;;;11.30
45393;BMP280;31129;44.810;10.334;2023-03-15T07:21:11;99963.88;;;11.41
45393;BMP280;31129;44.810;10.334;2023-03-15T07:23:36;99969.38;;;11.47
45393;BMP280;31129;44.810;10.334;2023-03-15T07:26:02;99988.28;;;11.50
45393;BMP280;31129;44.810;10.334;2023-03-15T07:28:28;99976.94;;;11.63
45393;BMP280;31129;44.810;10.334;2023-03-15T07:31:01;99990.38;;;11.66
45393;BMP280;31129;44.810;10.334;2023-03-15T07:33:29;99990.91;;;11.76
45393;BMP280;31129;44.810;10.334;2023-03-15T07:35:54;99989.94;;;11.79
45393;BMP280;31129;44.810;10.334;2023-03-15T07:38:26;99985.97;;;11.86
45393;BMP280;31129;44.810;10.334;2023-03-15T07:40:55;99997.66;;;11.92
45393;BMP280;31129;44.810;10.334;2023-03-15T07:43:23;100003.94;;;12.03
45393;BMP280;31129;44.810;10.334;2023-03-15T07:45:57;100009.44;;;12.15
45393;BMP280;31129;44.810;10.334;2023-03-15T07:48:23;100005.97;;;12.20
45393;BMP280;31129;44.810;10.334;2023-03-15T07:50:48;100016.91;;;12.20
45393;BMP280;31129;44.810;10.334;2023-03-15T07:53:14;100006.22;;;12.22
45393;BMP280;31129;44.810;10.334;2023-03-15T07:55:39;100024.41;;;12.25
45393;BMP280;31129;44.810;10.334;2023-03-15T07:58:04;100029.13;;;12.35
45393;BMP280;31129;44.810;10.334;2023-03-15T08:00:30;100022.69;;;12.50
45393;BMP280;31129;44.810;10.334;2023-03-15T08:02:57;100039.84;;;12.50
45393;BMP280;31129;44.810;10.334;2023-03-15T08:05:22;100026.97;;;12.62
45393;BMP280;31129;44.810;10.334;2023-03-15T08:07:48;100040.16;;;12.74
45393;BMP280;31129;44.810;10.334;2023-03-15T08:10:15;100036.91;;;12.76
45393;BMP280;31129;44.810;10.334;2023-03-15T08:12:41;100045.88;;;12.82
45393;BMP280;31129;44.810;10.334;2023-03-15T08:15:11;100041.69;;;12.87
45393;BMP280;31129;44.810;10.334;2023-03-15T08:17:38;100057.84;;;12.90
45393;BMP280;31129;44.810;10.334;2023-03-15T08:20:05;100052.13;;;12.94
45393;BMP280;31129;44.810;10.334;2023-03-15T08:22:31;100066.03;;;12.96
45393;BMP280;31129;44.810;10.334;2023-03-15T08:24:56;100059.59;;;13.04
45393;BMP280;31129;44.810;10.334;2023-03-15T08:27:24;100070.28;;;13.02
45393;BMP280;31129;44.810;10.334;2023-03-15T08:29:50;100076.00;;;13.10
45393;BMP280;31129;44.810;10.334;2023-03-15T08:32:17;100061.31;;;13.13
45393;BMP280;31129;44.810;10.334;2023-03-15T08:34:43;100082.25;;;13.16
45393;BMP280;31129;44.810;10.334;2023-03-15T08:37:09;100071.31;;;13.22
45393;BMP280;31129;44.810;10.334;2023-03-15T08:39:36;100093.72;;;13.20
45393;BMP280;31129;44.810;10.334;2023-03-15T08:42:02;100080.00;;;13.37
45393;BMP280;31129;44.810;10.334;2023-03-15T08:44:27;100086.47;;;13.39
45393;BMP280;31129;44.810;10.334;2023-03-15T08:46:55;100095.66;;;13.42
45393;BMP280;31129;44.810;10.334;2023-03-15T08:49:21;100094.44;;;13.48
45393;BMP280;31129;44.810;10.334;2023-03-15T08:51:46;100121.34;;;13.50
45393;BMP280;31129;44.810;10.334;2023-03-15T08:54:12;100102.38;;;13.58
45393;BMP280;31129;44.810;10.334;2023-03-15T08:56:39;100101.41;;;13.66
45393;BMP280;31129;44.810;10.334;2023-03-15T08:59:06;100124.28;;;13.74
45393;BMP280;31129;44.810;10.334;2023-03-15T09:01:32;100112.34;;;13.77
45393;BMP280;31129;44.810;10.334;2023-03-15T09:03:57;100119.50;;;13.86
45393;BMP280;31129;44.810;10.334;2023-03-15T09:06:23;100134.44;;;14.02
45393;BMP280;31129;44.810;10.334;2023-03-15T09:08:48;100126.97;;;14.02
45393;BMP280;31129;44.810;10.334;2023-03-15T09:11:13;100142.19;;;14.09
45393;BMP280;31129;44.810;10.334;2023-03-15T09:13:39;100137.66;;;14.11
45393;BMP280;31129;44.810;10.334;2023-03-15T09:16:04;100135.41;;;14.15
45393;BMP280;31129;44.810;10.334;2023-03-15T09:18:30;100140.63;;;14.19
45393;BMP280;31129;44.810;10.334;2023-03-15T09:20:55;100131.13;;;14.25
45393;BMP280;31129;44.810;10.334;2023-03-15T09:23:21;100151.78;;;14.38
45393;BMP280;31129;44.810;10.334;2023-03-15T09:25:46;100142.03;;;14.42
45393;BMP280;31129;44.810;10.334;2023-03-15T09:28:12;100151.78;;;14.38
45393;BMP280;31129;44.810;10.334;2023-03-15T09:30:39;100155.19;;;14.55
45393;BMP280;31129;44.810;10.334;2023-03-15T09:33:05;100154.16;;;14.63
45393;BMP280;31129;44.810;10.334;2023-03-15T09:35:31;100177.41;;;14.57
45393;BMP280;31129;44.810;10.334;2023-03-15T09:37:57;100159.34;;;14.73
45393;BMP280;31129;44.810;10.334;2023-03-15T09:40:25;100167.03;;;14.80
45393;BMP280;31129;44.810;10.334;2023-03-15T09:43:09;100166.78;;;14.83
45393;BMP280;31129;44.810;10.334;2023-03-15T09:48:39;100191.41;;;14.94
45393;BMP280;31129;44.810;10.334;2023-03-15T09:51:15;100179.72;;;14.88
45393;BMP280;31129;44.810;10.334;2023-03-15T09:53:53;100187.41;;;14.95
45393;BMP280;31129;44.810;10.334;2023-03-15T09:56:33;100168.66;;;14.99
45393;BMP280;31129;44.810;10.334;2023-03-15T09:59:01;100195.53;;;15.12
45393;BMP280;31129;44.810;10.334;2023-03-15T10:01:32;100189.22;;;15.23
45393;BMP280;31129;44.810;10.334;2023-03-15T10:04:23;100176.75;;;15.22
45393;BMP280;31129;44.810;10.334;2023-03-15T10:06:54;100187.44;;;15.31
45393;BMP280;31129;44.810;10.334;2023-03-15T10:09:22;100203.56;;;15.16
45393;BMP280;31129;44.810;10.334;2023-03-15T10:12:12;100184.94;;;15.33
45393;BMP280;31129;44.810;10.334;2023-03-15T10:14:59;100193.25;;;15.52
45393;BMP280;31129;44.810;10.334;2023-03-15T10:20:05;100187.97;;;15.54
45393;BMP280;31129;44.810;10.334;2023-03-15T10:22:40;100238.66;;;15.64
45393;BMP280;31129;44.810;10.334;2023-03-15T10:25:26;100203.94;;;15.61
45393;BMP280;31129;44.810;10.334;2023-03-15T10:30:26;100223.41;;;15.63
45393;BMP280;31129;44.810;10.334;2023-03-15T10:33:01;100216.75;;;15.53
45393;BMP280;31129;44.810;10.334;2023-03-15T10:35:28;100214.00;;;15.53
45393;BMP280;31129;44.810;10.334;2023-03-15T10:37:53;100238.44;;;15.56
45393;BMP280;31129;44.810;10.334;2023-03-15T10:43:20;100222.69;;;15.57
45393;BMP280;31129;44.810;10.334;2023-03-15T10:46:10;100222.53;;;15.73
45393;BMP280;31129;44.810;10.334;2023-03-15T10:48:39;100222.81;;;15.75
45393;BMP280;31129;44.810;10.334;2023-03-15T10:53:52;100220.22;;;15.83
45393;BMP280;31129;44.810;10.334;2023-03-15T10:56:25;100225.16;;;15.90
45393;BMP280;31129;44.810;10.334;2023-03-15T10:58:53;100232.59;;;15.95
45393;BMP280;31129;44.810;10.334;2023-03-15T11:01:31;100236.03;;;16.01
45393;BMP280;31129;44.810;10.334;2023-03-15T11:04:17;100258.06;;;16.01
45393;BMP280;31129;44.810;10.334;2023-03-15T11:06:47;100248.66;;;15.91
45393;BMP280;31129;44.810;10.334;2023-03-15T11:09:21;100269.53;;;15.81
45393;BMP280;31129;44.810;10.334;2023-03-15T11:12:08;100265.94;;;15.92
45393;BMP280;31129;44.810;10.334;2023-03-15T11:14:38;100252.34;;;15.99
45393;BMP280;31129;44.810;10.334;2023-03-15T11:17:07;100271.06;;;16.01
45393;BMP280;31129;44.810;10.334;2023-03-15T11:19:39;100267.31;;;16.04
45393;BMP280;31129;44.810;10.334;2023-03-15T11:22:10;100287.72;;;16.14
45393;BMP280;31129;44.810;10.334;2023-03-15T11:24:36;100267.31;;;16.04
45393;BMP280;31129;44.810;10.334;2023-03-15T11:27:09;100275.16;;;15.94
45393;BMP280;31129;44.810;10.334;2023-03-15T11:29:36;100266.78;;;16.05
45393;BMP280;31129;44.810;10.334;2023-03-15T11:32:13;100289.13;;;16.26
45393;BMP280;31129;44.810;10.334;2023-03-15T11:35:30;100277.47;;;16.14
45393;BMP280;31129;44.810;10.334;2023-03-15T11:42:45;100275.50;;;16.34
45393;BMP280;31129;44.810;10.334;2023-03-15T11:45:19;100280.81;;;16.50
45393;BMP280;31129;44.810;10.334;2023-03-15T11:47:52;100268.94;;;16.61
45393;BMP280;31129;44.810;10.334;2023-03-15T11:50:18;100278.84;;;16.70
45393;BMP280;31129;44.810;10.334;2023-03-15T11:52:49;100263.50;;;16.55
45393;BMP280;31129;44.810;10.334;2023-03-15T11:55:25;100269.56;;;16.48
45393;BMP280;31129;44.810;10.334;2023-03-15T11:57:52;100289.38;;;16.47
45393;BMP280;31129;44.810;10.334;2023-03-15T12:05:46;100297.75;;;17.16
45393;BMP280;31129;44.810;10.334;2023-03-15T12:08:44;100296.03;;;16.76
45393;BMP280;31129;44.810;10.334;2023-03-15T12:16:28;100277.16;;;16.42
45393;BMP280;31129;44.810;10.334;2023-03-15T12:18:56;100272.47;;;16.37
45393;BMP280;31129;44.810;10.334;2023-03-15T12:21:30;100269.31;;;16.28
45393;BMP280;31129;44.810;10.334;2023-03-15T12:24:03;100275.75;;;16.36
45393;BMP280;31129;44.810;10.334;2023-03-15T12:29:25;100277.25;;;17.12
45393;BMP280;31129;44.810;10.334;2023-03-15T12:34:41;100271.31;;;16.89
45393;BMP280;31129;44.810;10.334;2023-03-15T12:37:16;100274.69;;;16.82
45393;BMP280;31129;44.810;10.334;2023-03-15T12:39:58;100273.88;;;16.87
45393;BMP280;31129;44.810;10.334;2023-03-15T12:50:48;100275.44;;;16.82
45393;BMP280;31129;44.810;10.334;2023-03-15T12:53:27;100268.09;;;17.22
45393;BMP280;31129;44.810;10.334;2023-03-15T12:58:50;100263.50;;;18.02
45393;BMP280;31129;44.810;10.334;2023-03-15T13:01:17;100276.13;;;18.24
45393;BMP280;31129;44.810;10.334;2023-03-15T13:03:43;100280.50;;;18.06
45393;BMP280;31129;44.810;10.334;2023-03-15T13:06:24;100274.84;;;17.85
45393;BMP280;31129;44.810;10.334;2023-03-15T13:08:56;100293.13;;;17.88
45393;BMP280;31129;44.810;10.334;2023-03-15T13:11:50;100287.91;;;17.98
45393;BMP280;31129;44.810;10.334;2023-03-15T13:19:16;100288.97;;;17.82
45393;BMP280;31129;44.810;10.334;2023-03-15T13:29:52;100279.59;;;17.58
45393;BMP280;31129;44.810;10.334;2023-03-15T13:32:21;100282.19;;;17.51
45393;BMP280;31129;44.810;10.334;2023-03-15T13:34:50;100277.00;;;17.92
45393;BMP280;31129;44.810;10.334;2023-03-15T13:37:25;100287.38;;;18.12
45393;BMP280;31129;44.810;10.334;2023-03-15T13:39:53;100277.19;;;18.07
45393;BMP280;31129;44.810;10.334;2023-03-15T13:42:22;100287.59;;;18.15
45393;BMP280;31129;44.810;10.334;2023-03-15T13:47:29;100296.66;;;17.70
45393;BMP280;31129;44.810;10.334;2023-03-15T13:49:55;100300.56;;;17.11
45393;BMP280;31129;44.810;10.334;2023-03-15T13:52:21;100306.53;;;16.96
45393;BMP280;31129;44.810;10.334;2023-03-15T13:54:46;100309.47;;;16.85
45393;BMP280;31129;44.810;10.334;2023-03-15T13:57:17;100306.34;;;17.13
45393;BMP280;31129;44.810;10.334;2023-03-15T13:59:50;100311.75;;;17.37
45393;BMP280;31129;44.810;10.334;2023-03-15T14:02:21;100313.75;;;17.37
45393;BMP280;31129;44.810;10.334;2023-03-15T14:04:55;100300.09;;;17.76
45393;BMP280;31129;44.810;10.334;2023-03-15T14:07:28;100298.00;;;17.95
45393;BMP280;31129;44.810;10.334;2023-03-15T14:12:48;100306.94;;;18.54
45393;BMP280;31129;44.810;10.334;2023-03-15T14:18:00;100316.03;;;18.75
45393;BMP280;31129;44.810;10.334;2023-03-15T14:20:39;100320.09;;;18.61
45393;BMP280;31129;44.810;10.334;2023-03-15T14:23:09;100328.06;;;18.65
45393;BMP280;31129;44.810;10.334;2023-03-15T14:25:35;100327.44;;;18.59
45393;BMP280;31129;44.810;10.334;2023-03-15T14:28:03;100327.56;;;18.66
45393;BMP280;31129;44.810;10.334;2023-03-15T14:30:35;100333.53;;;19.04
45393;BMP280;31129;44.810;10.334;2023-03-15T14:33:03;100332.78;;;19.24
45393;BMP280;31129;44.810;10.334;2023-03-15T14:35:31;100333.44;;;18.97
45393;BMP280;31129;44.810;10.334;2023-03-15T14:38:22;100337.41;;;19.22
45393;BMP280;31129;44.810;10.334;2023-03-15T14:40:48;100337.75;;;19.05
45393;BMP280;31129;44.810;10.334;2023-03-15T14:43:14;100346.78;;;19.06
45393;BMP280;31129;44.810;10.334;2023-03-15T14:45:41;100348.81;;;19.39
45393;BMP280;31129;44.810;10.334;2023-03-15T14:48:23;100343.72;;;19.43
45393;BMP280;31129;44.810;10.334;2023-03-15T14:50:50;100342.25;;;19.50
45393;BMP280;31129;44.810;10.334;2023-03-15T14:53:19;100345.38;;;19.25
45393;BMP280;31129;44.810;10.334;2023-03-15T14:55:45;100346.56;;;19.17
45393;BMP280;31129;44.810;10.334;2023-03-15T14:58:15;100341.09;;;19.58
45393;BMP280;31129;44.810;10.334;2023-03-15T15:00:50;100340.78;;;19.69
45393;BMP280;31129;44.810;10.334;2023-03-15T15:03:28;100342.81;;;19.69
45393;BMP280;31129;44.810;10.334;2023-03-15T15:05:58;100344.22;;;20.11
45393;BMP280;31129;44.810;10.334;2023-03-15T15:08:24;100344.13;;;19.96
45393;BMP280;31129;44.810;10.334;2023-03-15T15:10:51;100346.00;;;19.73
45393;BMP280;31129;44.810;10.334;2023-03-15T15:13:23;100340.16;;;19.84
45393;BMP280;31129;44.810;10.334;2023-03-15T15:15:49;100341.38;;;19.55
45393;BMP280;31129;44.810;10.334;2023-03-15T15:18:15;100339.22;;;19.40
45393;BMP280;31129;44.810;10.334;2023-03-15T15:20:41;100339.84;;;19.67
45393;BMP280;31129;44.810;10.334;2023-03-15T15:23:34;100346.19;;;19.33
45393;BMP280;31129;44.810;10.334;2023-03-15T15:26:02;100349.78;;;19.62